sensor_id;sensor_type;location;lat;lon;timestamp;P1;durP1;ratioP1;P2;durP2;ratioP2
65206;SDS011;58477;48.072;11.970;2022-07-22T00:02:07;16.70;;;12.52;;
65206;SDS011;58477;48.072;11.970;2022-07-22T00:04:32;18.73;;;12.20;;
65206;SDS011;58477;48.072;11.970;2022-07-22T00:06:58;15.60;;;12.10;;
65206;SDS011;58477;48.072;11.970;2022-07-22T00:09:23;17.95;;;11.63;;
65206;SDS011;58477;48.072;11.970;2022-07-22T00:11:48;16.30;;;11.60;;
65206;SDS011;58477;48.072;11.970;2022-07-22T00:14:14;17.08;;;12.60;;
65206;SDS011;58477;48.072;11.970;2022-07-22T00:16:40;15.20;;;12.68;;
65206;SDS011;58477;48.072;11.970;2022-07-22T00:19:08;26.75;;;13.73;;
65206;SDS011;58477;48.072;11.970;2022-07-22T00:21:34;17.77;;;13.43;;
65206;SDS011;58477;48.072;11.970;2022-07-22T00:23:59;17.40;;;13.73;;
65206;SDS011;58477;48.072;11.970;2022-07-22T00:26:25;16.33;;;13.35;;
65206;SDS011;58477;48.072;11.970;2022-07-22T00:28:50;23.73;;;13.68;;
65206;SDS011;58477;48.072;11.970;2022-07-22T00:31:16;16.52;;;12.13;;
65206;SDS011;58477;48.072;11.970;2022-07-22T00:33:41;18.45;;;13.23;;
65206;SDS011;58477;48.072;11.970;2022-07-22T00:36:07;17.92;;;12.95;;
65206;SDS011;58477;48.072;11.970;2022-07-22T00:38:32;17.73;;;13.52;;
65206;SDS011;58477;48.072;11.970;2022-07-22T00:40:58;17.90;;;12.75;;
65206;SDS011;58477;48.072;11.970;2022-07-22T00:43:23;18.30;;;11.68;;
65206;SDS011;58477;48.072;11.970;2022-07-22T00:45:49;18.25;;;12.93;;
65206;SDS011;58477;48.072;11.970;2022-07-22T00:48:15;15.05;;;12.35;;
65206;SDS011;58477;48.072;11.970;2022-07-22T00:50:40;16.73;;;12.32;;
65206;SDS011;58477;48.072;11.970;2022-07-22T00:53:07;15.70;;;12.32;;
65206;SDS011;58477;48.072;11.970;2022-07-22T00:55:33;14.77;;;12.02;;
65206;SDS011;58477;48.072;11.970;2022-07-22T00:58:00;19.20;;;12.20;;
65206;SDS011;58477;48.072;11.970;2022-07-22T01:00:27;17.98;;;13.43;;
65206;SDS011;58477;48.072;11.970;2022-07-22T01:02:54;20.77;;;13.88;;
65206;SDS011;58477;48.072;11.970;2022-07-22T01:05:21;20.13;;;13.25;;
65206;SDS011;58477;48.072;11.970;2022-07-22T01:07:46;16.33;;;12.20;;
65206;SDS011;58477;48.072;11.970;2022-07-22T01:10:12;19.75;;;12.82;;
65206;SDS011;58477;48.072;11.970;2022-07-22T01:12:39;21.88;;;13.20;;
65206;SDS011;58477;48.072;11.970;2022-07-22T01:15:05;19.85;;;12.25;;
65206;SDS011;58477;48.072;11.970;2022-07-22T01:17:31;20.20;;;12.75;;
65206;SDS011;58477;48.072;11.970;2022-07-22T01:20:04;20.65;;;14.00;;
65206;SDS011;58477;48.072;11.970;2022-07-22T01:22:31;14.93;;;12.48;;
65206;SDS011;58477;48.072;11.970;2022-07-22T01:24:57;18.27;;;12.30;;
65206;SDS011;58477;48.072;11.970;2022-07-22T01:27:22;21.60;;;12.57;;
65206;SDS011;58477;48.072;11.970;2022-07-22T01:29:48;17.75;;;12.77;;
65206;SDS011;58477;48.072;11.970;2022-07-22T01:32:14;17.35;;;12.40;;
65206;SDS011;58477;48.072;11.970;2022-07-22T01:34:39;18.35;;;12.63;;
65206;SDS011;58477;48.072;11.970;2022-07-22T01:37:05;20.42;;;13.25;;
65206;SDS011;58477;48.072;11.970;2022-07-22T01:39:30;18.17;;;13.00;;
65206;SDS011;58477;48.072;11.970;2022-07-22T01:41:55;16.20;;;12.52;;
65206;SDS011;58477;48.072;11.970;2022-07-22T01:44:21;16.50;;;11.50;;
65206;SDS011;58477;48.072;11.970;2022-07-22T01:46:46;17.90;;;12.40;;
65206;SDS011;58477;48.072;11.970;2022-07-22T01:49:12;18.23;;;12.07;;
65206;SDS011;58477;48.072;11.970;2022-07-22T01:51:38;19.67;;;12.75;;
65206;SDS011;58477;48.072;11.970;2022-07-22T01:54:04;20.63;;;13.43;;
65206;SDS011;58477;48.072;11.970;2022-07-22T01:56:30;19.77;;;13.07;;
65206;SDS011;58477;48.072;11.970;2022-07-22T01:58:56;21.88;;;13.40;;
65206;SDS011;58477;48.072;11.970;2022-07-22T02:01:25;20.65;;;12.98;;
65206;SDS011;58477;48.072;11.970;2022-07-22T02:03:52;17.73;;;13.63;;
65206;SDS011;58477;48.072;11.970;2022-07-22T02:06:19;20.70;;;15.75;;
65206;SDS011;58477;48.072;11.970;2022-07-22T02:08:45;20.45;;;15.63;;
65206;SDS011;58477;48.072;11.970;2022-07-22T02:11:18;25.98;;;14.63;;
65206;SDS011;58477;48.072;11.970;2022-07-22T02:13:56;18.55;;;13.73;;
65206;SDS011;58477;48.072;11.970;2022-07-22T02:16:23;20.58;;;13.20;;
65206;SDS011;58477;48.072;11.970;2022-07-22T02:18:50;22.23;;;13.43;;
65206;SDS011;58477;48.072;11.970;2022-07-22T02:21:16;20.20;;;14.43;;
65206;SDS011;58477;48.072;11.970;2022-07-22T02:23:42;18.83;;;14.05;;
65206;SDS011;58477;48.072;11.970;2022-07-22T02:26:08;19.75;;;13.30;;
65206;SDS011;58477;48.072;11.970;2022-07-22T02:28:34;17.27;;;13.85;;
65206;SDS011;58477;48.072;11.970;2022-07-22T02:31:01;19.10;;;14.90;;
65206;SDS011;58477;48.072;11.970;2022-07-22T02:33:26;22.80;;;15.23;;
65206;SDS011;58477;48.072;11.970;2022-07-22T02:35:52;21.23;;;15.40;;
65206;SDS011;58477;48.072;11.970;2022-07-22T02:38:18;22.35;;;15.27;;
65206;SDS011;58477;48.072;11.970;2022-07-22T02:40:43;21.50;;;14.52;;
65206;SDS011;58477;48.072;11.970;2022-07-22T02:43:10;19.48;;;15.02;;
65206;SDS011;58477;48.072;11.970;2022-07-22T02:45:35;20.05;;;15.27;;
65206;SDS011;58477;48.072;11.970;2022-07-22T02:48:01;19.90;;;15.70;;
65206;SDS011;58477;48.072;11.970;2022-07-22T02:50:26;25.05;;;15.88;;
65206;SDS011;58477;48.072;11.970;2022-07-22T02:52:52;19.35;;;15.07;;
65206;SDS011;58477;48.072;11.970;2022-07-22T02:55:21;21.98;;;15.05;;
65206;SDS011;58477;48.072;11.970;2022-07-22T02:57:48;21.10;;;16.20;;
65206;SDS011;58477;48.072;11.970;2022-07-22T03:00:14;24.00;;;17.38;;
65206;SDS011;58477;48.072;11.970;2022-07-22T03:02:40;24.38;;;15.60;;
65206;SDS011;58477;48.072;11.970;2022-07-22T03:05:06;22.92;;;15.52;;
65206;SDS011;58477;48.072;11.970;2022-07-22T03:07:35;19.55;;;14.48;;
65206;SDS011;58477;48.072;11.970;2022-07-22T03:10:01;22.05;;;14.85;;
65206;SDS011;58477;48.072;11.970;2022-07-22T03:12:28;18.02;;;14.25;;
65206;SDS011;58477;48.072;11.970;2022-07-22T03:14:53;20.30;;;14.93;;
65206;SDS011;58477;48.072;11.970;2022-07-22T03:17:18;19.42;;;14.52;;
65206;SDS011;58477;48.072;11.970;2022-07-22T03:19:44;26.58;;;15.23;;
65206;SDS011;58477;48.072;11.970;2022-07-22T03:22:09;20.42;;;15.35;;
65206;SDS011;58477;48.072;11.970;2022-07-22T03:24:35;28.33;;;17.90;;
65206;SDS011;58477;48.072;11.970;2022-07-22T03:27:00;22.60;;;17.63;;
65206;SDS011;58477;48.072;11.970;2022-07-22T03:29:28;22.90;;;16.58;;
65206;SDS011;58477;48.072;11.970;2022-07-22T03:31:54;24.50;;;15.80;;
65206;SDS011;58477;48.072;11.970;2022-07-22T03:34:35;22.10;;;15.15;;
65206;SDS011;58477;48.072;11.970;2022-07-22T03:37:04;20.88;;;14.13;;
65206;SDS011;58477;48.072;11.970;2022-07-22T03:39:30;19.73;;;15.23;;
65206;SDS011;58477;48.072;11.970;2022-07-22T03:41:55;21.92;;;15.93;;
65206;SDS011;58477;48.072;11.970;2022-07-22T03:44:22;21.50;;;16.33;;
65206;SDS011;58477;48.072;11.970;2022-07-22T03:46:48;25.17;;;17.88;;
65206;SDS011;58477;48.072;11.970;2022-07-22T03:49:14;20.17;;;15.35;;
65206;SDS011;58477;48.072;11.970;2022-07-22T03:51:40;23.13;;;17.05;;
65206;SDS011;58477;48.072;11.970;2022-07-22T03:54:05;22.65;;;16.05;;
65206;SDS011;58477;48.072;11.970;2022-07-22T03:56:31;21.20;;;15.80;;
65206;SDS011;58477;48.072;11.970;2022-07-22T03:58:57;21.73;;;15.23;;
65206;SDS011;58477;48.072;11.970;2022-07-22T04:01:22;21.35;;;15.25;;
65206;SDS011;58477;48.072;11.970;2022-07-22T04:03:48;25.42;;;16.60;;
65206;SDS011;58477;48.072;11.970;2022-07-22T04:06:32;23.13;;;16.15;;
65206;SDS011;58477;48.072;11.970;2022-07-22T04:09:05;21.27;;;15.90;;
65206;SDS011;58477;48.072;11.970;2022-07-22T04:11:32;21.10;;;15.82;;
65206;SDS011;58477;48.072;11.970;2022-07-22T04:13:58;24.00;;;16.63;;
65206;SDS011;58477;48.072;11.970;2022-07-22T04:16:24;22.33;;;16.00;;
65206;SDS011;58477;48.072;11.970;2022-07-22T04:18:57;21.05;;;15.20;;
65206;SDS011;58477;48.072;11.970;2022-07-22T04:21:38;21.53;;;15.43;;
65206;SDS011;58477;48.072;11.970;2022-07-22T04:24:08;20.75;;;15.68;;
65206;SDS011;58477;48.072;11.970;2022-07-22T04:26:33;19.67;;;14.45;;
65206;SDS011;58477;48.072;11.970;2022-07-22T04:28:59;19.70;;;15.30;;
65206;SDS011;58477;48.072;11.970;2022-07-22T04:31:25;23.00;;;16.02;;
65206;SDS011;58477;48.072;11.970;2022-07-22T04:33:58;20.55;;;14.52;;
65206;SDS011;58477;48.072;11.970;2022-07-22T04:36:24;17.70;;;14.23;;
65206;SDS011;58477;48.072;11.970;2022-07-22T04:38:51;23.42;;;15.60;;
65206;SDS011;58477;48.072;11.970;2022-07-22T04:41:17;22.13;;;14.73;;
65206;SDS011;58477;48.072;11.970;2022-07-22T04:43:43;21.70;;;14.40;;
65206;SDS011;58477;48.072;11.970;2022-07-22T04:46:09;17.75;;;13.88;;
65206;SDS011;58477;48.072;11.970;2022-07-22T04:48:38;20.48;;;14.85;;
65206;SDS011;58477;48.072;11.970;2022-07-22T04:51:04;22.27;;;13.90;;
65206;SDS011;58477;48.072;11.970;2022-07-22T04:53:31;17.10;;;13.30;;
65206;SDS011;58477;48.072;11.970;2022-07-22T04:55:56;16.23;;;12.25;;
65206;SDS011;58477;48.072;11.970;2022-07-22T04:58:23;18.33;;;12.95;;
65206;SDS011;58477;48.072;11.970;2022-07-22T05:00:49;19.02;;;14.13;;
65206;SDS011;58477;48.072;11.970;2022-07-22T05:03:15;17.20;;;13.65;;
65206;SDS011;58477;48.072;11.970;2022-07-22T05:05:41;19.52;;;13.60;;
65206;SDS011;58477;48.072;11.970;2022-07-22T05:08:07;17.52;;;12.18;;
65206;SDS011;58477;48.072;11.970;2022-07-22T05:10:33;16.25;;;11.95;;
65206;SDS011;58477;48.072;11.970;2022-07-22T05:12:59;16.38;;;12.13;;
65206;SDS011;58477;48.072;11.970;2022-07-22T05:15:25;19.50;;;11.80;;
65206;SDS011;58477;48.072;11.970;2022-07-22T05:17:50;17.50;;;11.57;;
65206;SDS011;58477;48.072;11.970;2022-07-22T05:20:21;14.52;;;10.70;;
65206;SDS011;58477;48.072;11.970;2022-07-22T05:22:46;17.90;;;11.23;;
65206;SDS011;58477;48.072;11.970;2022-07-22T05:25:16;18.30;;;11.55;;
65206;SDS011;58477;48.072;11.970;2022-07-22T05:27:49;15.98;;;10.55;;
65206;SDS011;58477;48.072;11.970;2022-07-22T05:30:24;14.68;;;10.27;;
65206;SDS011;58477;48.072;11.970;2022-07-22T05:32:50;14.30;;;10.57;;
65206;SDS011;58477;48.072;11.970;2022-07-22T05:35:21;12.95;;;10.55;;
65206;SDS011;58477;48.072;11.970;2022-07-22T05:37:47;14.25;;;11.38;;
65206;SDS011;58477;48.072;11.970;2022-07-22T05:40:12;13.35;;;10.82;;
65206;SDS011;58477;48.072;11.970;2022-07-22T05:42:38;22.83;;;11.02;;
65206;SDS011;58477;48.072;11.970;2022-07-22T05:45:04;18.48;;;10.70;;
65206;SDS011;58477;48.072;11.970;2022-07-22T05:47:30;13.68;;;10.75;;
65206;SDS011;58477;48.072;11.970;2022-07-22T05:49:55;10.48;;;9.27;;
65206;SDS011;58477;48.072;11.970;2022-07-22T05:52:21;15.02;;;9.43;;
65206;SDS011;58477;48.072;11.970;2022-07-22T05:54:47;12.10;;;8.10;;
65206;SDS011;58477;48.072;11.970;2022-07-22T05:57:13;9.55;;;7.45;;
65206;SDS011;58477;48.072;11.970;2022-07-22T05:59:39;13.20;;;8.63;;
65206;SDS011;58477;48.072;11.970;2022-07-22T06:02:05;15.07;;;9.02;;
65206;SDS011;58477;48.072;11.970;2022-07-22T06:04:39;11.38;;;9.95;;
65206;SDS011;58477;48.072;11.970;2022-07-22T06:07:05;12.55;;;9.75;;
65206;SDS011;58477;48.072;11.970;2022-07-22T06:09:33;11.18;;;8.75;;
65206;SDS011;58477;48.072;11.970;2022-07-22T06:11:59;11.20;;;9.73;;
65206;SDS011;58477;48.072;11.970;2022-07-22T06:14:24;16.67;;;9.68;;
65206;SDS011;58477;48.072;11.970;2022-07-22T06:16:50;11.77;;;8.85;;
65206;SDS011;58477;48.072;11.970;2022-07-22T06:19:16;12.05;;;8.77;;
65206;SDS011;58477;48.072;11.970;2022-07-22T06:21:41;12.88;;;8.38;;
65206;SDS011;58477;48.072;11.970;2022-07-22T06:24:10;13.02;;;8.27;;
65206;SDS011;58477;48.072;11.970;2022-07-22T06:26:36;12.05;;;9.05;;
65206;SDS011;58477;48.072;11.970;2022-07-22T06:29:01;12.35;;;8.05;;
65206;SDS011;58477;48.072;11.970;2022-07-22T06:31:27;9.38;;;7.75;;
65206;SDS011;58477;48.072;11.970;2022-07-22T06:33:52;11.73;;;8.20;;
65206;SDS011;58477;48.072;11.970;2022-07-22T06:36:17;9.85;;;8.38;;
65206;SDS011;58477;48.072;11.970;2022-07-22T06:38:43;9.63;;;8.05;;
65206;SDS011;58477;48.072;11.970;2022-07-22T06:41:27;11.10;;;7.78;;
65206;SDS011;58477;48.072;11.970;2022-07-22T06:44:02;10.57;;;7.90;;
65206;SDS011;58477;48.072;11.970;2022-07-22T06:46:57;9.25;;;7.80;;
65206;SDS011;58477;48.072;11.970;2022-07-22T06:49:25;10.95;;;7.53;;
65206;SDS011;58477;48.072;11.970;2022-07-22T06:51:51;13.02;;;8.30;;
65206;SDS011;58477;48.072;11.970;2022-07-22T06:54:17;12.88;;;7.60;;
65206;SDS011;58477;48.072;11.970;2022-07-22T06:56:43;10.00;;;8.45;;
65206;SDS011;58477;48.072;11.970;2022-07-22T06:59:13;15.30;;;8.18;;
65206;SDS011;58477;48.072;11.970;2022-07-22T07:01:39;12.20;;;8.20;;
65206;SDS011;58477;48.072;11.970;2022-07-22T07:04:04;10.50;;;8.15;;
65206;SDS011;58477;48.072;11.970;2022-07-22T07:06:30;9.00;;;7.20;;
65206;SDS011;58477;48.072;11.970;2022-07-22T07:09:04;10.52;;;8.20;;
65206;SDS011;58477;48.072;11.970;2022-07-22T07:11:30;12.85;;;8.15;;
65206;SDS011;58477;48.072;11.970;2022-07-22T07:13:57;11.38;;;7.55;;
65206;SDS011;58477;48.072;11.970;2022-07-22T07:16:22;12.35;;;7.95;;
65206;SDS011;58477;48.072;11.970;2022-07-22T07:18:48;10.45;;;7.75;;
65206;SDS011;58477;48.072;11.970;2022-07-22T07:21:14;9.48;;;6.93;;
65206;SDS011;58477;48.072;11.970;2022-07-22T07:23:39;11.20;;;7.15;;
65206;SDS011;58477;48.072;11.970;2022-07-22T07:26:05;8.85;;;7.50;;
65206;SDS011;58477;48.072;11.970;2022-07-22T07:28:30;10.57;;;7.35;;
65206;SDS011;58477;48.072;11.970;2022-07-22T07:31:22;8.82;;;6.85;;
65206;SDS011;58477;48.072;11.970;2022-07-22T07:33:50;8.48;;;6.78;;
65206;SDS011;58477;48.072;11.970;2022-07-22T07:36:16;11.77;;;7.25;;
65206;SDS011;58477;48.072;11.970;2022-07-22T07:38:47;8.18;;;6.60;;
65206;SDS011;58477;48.072;11.970;2022-07-22T07:41:15;9.85;;;6.80;;
65206;SDS011;58477;48.072;11.970;2022-07-22T07:43:41;7.88;;;6.70;;
65206;SDS011;58477;48.072;11.970;2022-07-22T07:46:07;7.43;;;6.50;;
65206;SDS011;58477;48.072;11.970;2022-07-22T07:48:33;7.95;;;6.28;;
65206;SDS011;58477;48.072;11.970;2022-07-22T07:50:59;8.77;;;6.28;;
65206;SDS011;58477;48.072;11.970;2022-07-22T07:53:24;11.30;;;6.50;;
65206;SDS011;58477;48.072;11.970;2022-07-22T07:55:50;10.82;;;6.90;;
65206;SDS011;58477;48.072;11.970;2022-07-22T07:58:16;10.05;;;6.85;;
65206;SDS011;58477;48.072;11.970;2022-07-22T08:00:42;10.68;;;6.40;;
65206;SDS011;58477;48.072;11.970;2022-07-22T08:03:09;7.93;;;6.90;;
65206;SDS011;58477;48.072;11.970;2022-07-22T08:05:36;10.65;;;7.22;;
65206;SDS011;58477;48.072;11.970;2022-07-22T08:08:02;10.73;;;6.75;;
65206;SDS011;58477;48.072;11.970;2022-07-22T08:10:28;9.45;;;6.53;;
65206;SDS011;58477;48.072;11.970;2022-07-22T08:13:02;8.25;;;6.65;;
65206;SDS011;58477;48.072;11.970;2022-07-22T08:15:47;12.00;;;6.78;;
65206;SDS011;58477;48.072;11.970;2022-07-22T08:18:21;8.13;;;6.45;;
65206;SDS011;58477;48.072;11.970;2022-07-22T08:20:46;9.18;;;5.60;;
65206;SDS011;58477;48.072;11.970;2022-07-22T08:23:12;9.65;;;6.60;;
65206;SDS011;58477;48.072;11.970;2022-07-22T08:25:40;11.65;;;7.07;;
65206;SDS011;58477;48.072;11.970;2022-07-22T08:28:06;12.75;;;6.65;;
65206;SDS011;58477;48.072;11.970;2022-07-22T08:30:34;9.00;;;6.10;;
65206;SDS011;58477;48.072;11.970;2022-07-22T08:32:59;6.72;;;5.65;;
65206;SDS011;58477;48.072;11.970;2022-07-22T08:35:25;7.97;;;5.70;;
65206;SDS011;58477;48.072;11.970;2022-07-22T08:37:51;6.55;;;5.38;;
65206;SDS011;58477;48.072;11.970;2022-07-22T08:40:18;13.45;;;5.80;;
65206;SDS011;58477;48.072;11.970;2022-07-22T08:42:45;8.40;;;5.38;;
65206;SDS011;58477;48.072;11.970;2022-07-22T08:45:14;5.55;;;4.97;;
65206;SDS011;58477;48.072;11.970;2022-07-22T08:47:40;8.73;;;5.47;;
65206;SDS011;58477;48.072;11.970;2022-07-22T08:50:22;7.47;;;5.10;;
65206;SDS011;58477;48.072;11.970;2022-07-22T08:53:11;6.20;;;5.15;;
65206;SDS011;58477;48.072;11.970;2022-07-22T08:55:43;8.70;;;4.95;;
65206;SDS011;58477;48.072;11.970;2022-07-22T09:00:37;9.38;;;5.20;;
65206;SDS011;58477;48.072;11.970;2022-07-22T09:03:22;6.55;;;4.60;;
65206;SDS011;58477;48.072;11.970;2022-07-22T09:05:53;7.72;;;5.95;;
65206;SDS011;58477;48.072;11.970;2022-07-22T09:08:20;10.77;;;5.25;;
65206;SDS011;58477;48.072;11.970;2022-07-22T09:10:55;6.60;;;5.03;;
65206;SDS011;58477;48.072;11.970;2022-07-22T09:13:43;7.18;;;5.47;;
65206;SDS011;58477;48.072;11.970;2022-07-22T09:16:38;8.23;;;4.57;;
65206;SDS011;58477;48.072;11.970;2022-07-22T09:19:38;12.98;;;5.20;;
65206;SDS011;58477;48.072;11.970;2022-07-22T09:22:39;6.90;;;5.82;;
65206;SDS011;58477;48.072;11.970;2022-07-22T09:25:29;9.95;;;5.35;;
65206;SDS011;58477;48.072;11.970;2022-07-22T09:28:24;9.23;;;5.05;;
65206;SDS011;58477;48.072;11.970;2022-07-22T09:31:08;8.50;;;5.15;;
65206;SDS011;58477;48.072;11.970;2022-07-22T09:33:49;5.95;;;5.00;;
65206;SDS011;58477;48.072;11.970;2022-07-22T09:36:20;6.80;;;5.43;;
65206;SDS011;58477;48.072;11.970;2022-07-22T09:38:48;7.13;;;4.68;;
65206;SDS011;58477;48.072;11.970;2022-07-22T09:41:13;5.07;;;4.40;;
65206;SDS011;58477;48.072;11.970;2022-07-22T09:43:39;7.30;;;5.28;;
65206;SDS011;58477;48.072;11.970;2022-07-22T09:46:05;5.43;;;4.63;;
65206;SDS011;58477;48.072;11.970;2022-07-22T09:49:03;10.05;;;4.93;;
65206;SDS011;58477;48.072;11.970;2022-07-22T09:51:38;5.22;;;4.72;;
65206;SDS011;58477;48.072;11.970;2022-07-22T09:54:30;5.80;;;4.72;;
65206;SDS011;58477;48.072;11.970;2022-07-22T09:56:57;5.53;;;4.55;;
65206;SDS011;58477;48.072;11.970;2022-07-22T09:59:23;8.23;;;4.70;;
65206;SDS011;58477;48.072;11.970;2022-07-22T10:01:59;8.90;;;4.93;;
65206;SDS011;58477;48.072;11.970;2022-07-22T10:04:29;6.30;;;4.80;;
65206;SDS011;58477;48.072;11.970;2022-07-22T10:06:58;6.40;;;5.18;;
65206;SDS011;58477;48.072;11.970;2022-07-22T10:09:31;6.93;;;5.20;;
65206;SDS011;58477;48.072;11.970;2022-07-22T10:11:57;9.30;;;5.30;;
65206;SDS011;58477;48.072;11.970;2022-07-22T10:14:23;6.50;;;4.90;;
65206;SDS011;58477;48.072;11.970;2022-07-22T10:16:53;6.82;;;5.20;;
65206;SDS011;58477;48.072;11.970;2022-07-22T10:19:19;8.15;;;5.25;;
65206;SDS011;58477;48.072;11.970;2022-07-22T10:21:45;7.55;;;4.88;;
65206;SDS011;58477;48.072;11.970;2022-07-22T10:24:14;9.45;;;4.88;;
65206;SDS011;58477;48.072;11.970;2022-07-22T10:26:53;6.63;;;4.70;;
65206;SDS011;58477;48.072;11.970;2022-07-22T10:29:24;6.07;;;4.70;;
65206;SDS011;58477;48.072;11.970;2022-07-22T10:31:49;10.13;;;4.82;;
65206;SDS011;58477;48.072;11.970;2022-07-22T10:34:15;6.40;;;4.70;;
65206;SDS011;58477;48.072;11.970;2022-07-22T10:36:40;7.50;;;4.50;;
65206;SDS011;58477;48.072;11.970;2022-07-22T10:39:09;7.97;;;5.07;;
65206;SDS011;58477;48.072;11.970;2022-07-22T10:41:37;8.77;;;5.00;;
65206;SDS011;58477;48.072;11.970;2022-07-22T10:44:06;5.55;;;4.68;;
65206;SDS011;58477;48.072;11.970;2022-07-22T10:46:48;5.20;;;4.70;;
65206;SDS011;58477;48.072;11.970;2022-07-22T10:49:20;6.18;;;5.50;;
65206;SDS011;58477;48.072;11.970;2022-07-22T10:54:33;5.90;;;4.55;;
65206;SDS011;58477;48.072;11.970;2022-07-22T10:57:01;5.97;;;4.97;;
65206;SDS011;58477;48.072;11.970;2022-07-22T10:59:27;6.07;;;5.25;;
65206;SDS011;58477;48.072;11.970;2022-07-22T11:01:52;7.07;;;4.78;;
65206;SDS011;58477;48.072;11.970;2022-07-22T11:04:23;7.95;;;5.50;;
65206;SDS011;58477;48.072;11.970;2022-07-22T11:06:51;8.40;;;5.68;;
65206;SDS011;58477;48.072;11.970;2022-07-22T11:09:19;8.27;;;6.03;;
65206;SDS011;58477;48.072;11.970;2022-07-22T11:11:47;6.75;;;6.03;;
65206;SDS011;58477;48.072;11.970;2022-07-22T11:16:53;6.75;;;5.55;;
65206;SDS011;58477;48.072;11.970;2022-07-22T11:19:21;6.75;;;6.15;;
65206;SDS011;58477;48.072;11.970;2022-07-22T11:21:49;10.15;;;5.68;;
65206;SDS011;58477;48.072;11.970;2022-07-22T11:24:18;6.47;;;5.83;;
65206;SDS011;58477;48.072;11.970;2022-07-22T11:26:46;7.53;;;5.80;;
65206;SDS011;58477;48.072;11.970;2022-07-22T11:29:30;7.43;;;5.43;;
65206;SDS011;58477;48.072;11.970;2022-07-22T11:31:58;11.27;;;6.03;;
65206;SDS011;58477;48.072;11.970;2022-07-22T11:34:25;7.43;;;5.72;;
65206;SDS011;58477;48.072;11.970;2022-07-22T11:36:51;6.22;;;5.60;;
65206;SDS011;58477;48.072;11.970;2022-07-22T11:39:22;8.48;;;5.75;;
65206;SDS011;58477;48.072;11.970;2022-07-22T11:41:50;6.40;;;5.80;;
65206;SDS011;58477;48.072;11.970;2022-07-22T11:44:20;9.05;;;6.05;;
65206;SDS011;58477;48.072;11.970;2022-07-22T11:49:14;6.60;;;5.78;;
65206;SDS011;58477;48.072;11.970;2022-07-22T11:51:41;14.50;;;6.38;;
65206;SDS011;58477;48.072;11.970;2022-07-22T11:54:06;7.15;;;5.57;;
65206;SDS011;58477;48.072;11.970;2022-07-22T11:56:32;8.70;;;5.80;;
65206;SDS011;58477;48.072;11.970;2022-07-22T11:58:58;6.90;;;6.30;;
65206;SDS011;58477;48.072;11.970;2022-07-22T12:01:24;9.43;;;6.05;;
65206;SDS011;58477;48.072;11.970;2022-07-22T12:03:54;10.47;;;6.23;;
65206;SDS011;58477;48.072;11.970;2022-07-22T12:06:22;8.90;;;6.03;;
65206;SDS011;58477;48.072;11.970;2022-07-22T12:09:10;9.50;;;6.18;;
65206;SDS011;58477;48.072;11.970;2022-07-22T12:11:36;8.13;;;5.80;;
65206;SDS011;58477;48.072;11.970;2022-07-22T12:14:09;6.63;;;5.97;;
65206;SDS011;58477;48.072;11.970;2022-07-22T12:16:40;6.30;;;5.57;;
65206;SDS011;58477;48.072;11.970;2022-07-22T12:19:08;6.65;;;5.93;;
65206;SDS011;58477;48.072;11.970;2022-07-22T12:21:36;6.93;;;5.88;;
65206;SDS011;58477;48.072;11.970;2022-07-22T12:24:16;8.00;;;5.55;;
65206;SDS011;58477;48.072;11.970;2022-07-22T12:26:45;6.80;;;5.97;;
65206;SDS011;58477;48.072;11.970;2022-07-22T12:31:41;7.10;;;5.05;;
65206;SDS011;58477;48.072;11.970;2022-07-22T12:34:07;6.13;;;5.53;;
65206;SDS011;58477;48.072;11.970;2022-07-22T12:36:33;6.57;;;5.80;;
65206;SDS011;58477;48.072;11.970;2022-07-22T12:39:10;9.35;;;6.13;;
65206;SDS011;58477;48.072;11.970;2022-07-22T12:41:43;8.20;;;5.75;;
65206;SDS011;58477;48.072;11.970;2022-07-22T12:44:21;6.63;;;5.47;;
65206;SDS011;58477;48.072;11.970;2022-07-22T12:46:51;5.70;;;5.10;;
65206;SDS011;58477;48.072;11.970;2022-07-22T12:49:18;8.98;;;5.50;;
65206;SDS011;58477;48.072;11.970;2022-07-22T12:54:49;6.53;;;5.10;;
65206;SDS011;58477;48.072;11.970;2022-07-22T12:57:15;7.38;;;5.07;;
65206;SDS011;58477;48.072;11.970;2022-07-22T12:59:40;5.93;;;5.13;;
65206;SDS011;58477;48.072;11.970;2022-07-22T13:02:16;8.30;;;5.68;;
65206;SDS011;58477;48.072;11.970;2022-07-22T13:04:41;6.25;;;5.30;;
65206;SDS011;58477;48.072;11.970;2022-07-22T13:07:07;10.00;;;5.93;;
65206;SDS011;58477;48.072;11.970;2022-07-22T13:09:32;5.97;;;5.47;;
65206;SDS011;58477;48.072;11.970;2022-07-22T13:11:58;6.05;;;5.40;;
65206;SDS011;58477;48.072;11.970;2022-07-22T13:14:23;10.88;;;5.50;;
65206;SDS011;58477;48.072;11.970;2022-07-22T13:16:49;11.50;;;5.28;;
65206;SDS011;58477;48.072;11.970;2022-07-22T13:19:14;8.73;;;5.50;;
65206;SDS011;58477;48.072;11.970;2022-07-22T13:21:39;5.75;;;5.15;;
65206;SDS011;58477;48.072;11.970;2022-07-22T13:24:06;8.98;;;5.22;;
65206;SDS011;58477;48.072;11.970;2022-07-22T13:26:31;9.40;;;5.45;;
65206;SDS011;58477;48.072;11.970;2022-07-22T13:28:57;8.82;;;5.22;;
65206;SDS011;58477;48.072;11.970;2022-07-22T13:31:22;7.88;;;5.55;;
65206;SDS011;58477;48.072;11.970;2022-07-22T13:33:48;7.68;;;5.28;;
65206;SDS011;58477;48.072;11.970;2022-07-22T13:36:13;6.05;;;5.25;;
65206;SDS011;58477;48.072;11.970;2022-07-22T13:38:39;9.68;;;5.53;;
65206;SDS011;58477;48.072;11.970;2022-07-22T13:41:04;11.48;;;5.38;;
65206;SDS011;58477;48.072;11.970;2022-07-22T13:43:41;7.82;;;5.60;;
65206;SDS011;58477;48.072;11.970;2022-07-22T13:46:07;8.95;;;5.60;;
65206;SDS011;58477;48.072;11.970;2022-07-22T13:48:32;7.68;;;5.80;;
65206;SDS011;58477;48.072;11.970;2022-07-22T13:50:58;7.57;;;5.10;;
65206;SDS011;58477;48.072;11.970;2022-07-22T13:53:23;11.05;;;5.70;;
65206;SDS011;58477;48.072;11.970;2022-07-22T13:55:49;6.45;;;5.30;;
65206;SDS011;58477;48.072;11.970;2022-07-22T13:58:14;11.65;;;5.32;;
65206;SDS011;58477;48.072;11.970;2022-07-22T14:00:40;5.78;;;5.20;;
65206;SDS011;58477;48.072;11.970;2022-07-22T14:03:06;11.73;;;6.03;;
65206;SDS011;58477;48.072;11.970;2022-07-22T14:05:31;6.68;;;5.97;;
65206;SDS011;58477;48.072;11.970;2022-07-22T14:07:57;8.32;;;5.63;;
65206;SDS011;58477;48.072;11.970;2022-07-22T14:10:22;7.95;;;5.80;;
65206;SDS011;58477;48.072;11.970;2022-07-22T14:12:48;8.30;;;5.70;;
65206;SDS011;58477;48.072;11.970;2022-07-22T14:15:15;8.25;;;6.00;;
65206;SDS011;58477;48.072;11.970;2022-07-22T14:17:40;9.82;;;5.97;;
65206;SDS011;58477;48.072;11.970;2022-07-22T14:20:06;7.68;;;6.10;;
65206;SDS011;58477;48.072;11.970;2022-07-22T14:22:33;9.95;;;6.13;;
65206;SDS011;58477;48.072;11.970;2022-07-22T14:24:59;8.88;;;6.07;;
65206;SDS011;58477;48.072;11.970;2022-07-22T14:27:25;6.70;;;6.03;;
65206;SDS011;58477;48.072;11.970;2022-07-22T14:29:50;9.73;;;5.55;;
65206;SDS011;58477;48.072;11.970;2022-07-22T14:32:16;9.02;;;6.00;;
65206;SDS011;58477;48.072;11.970;2022-07-22T14:34:41;8.50;;;6.18;;
65206;SDS011;58477;48.072;11.970;2022-07-22T14:37:06;13.55;;;10.55;;
65206;SDS011;58477;48.072;11.970;2022-07-22T14:39:33;9.43;;;5.88;;
65206;SDS011;58477;48.072;11.970;2022-07-22T14:41:59;16.15;;;6.00;;
65206;SDS011;58477;48.072;11.970;2022-07-22T14:44:24;34.38;;;23.17;;